Aeroporto :
LOGIN :

Iscrizione | Disclaimer

   EN    FR    IT 

 










Sommario :    VFR   VFR Marginale   IFR   IFR Intensivo   IFR Molto Intensivo
Visibilità : 
Base nubi : 
>= 8 km
>= 3000ft
5 / 8 km
1000 / 3000 ft
1500m / 5 km
500 / 1000 ft
800 / 1500m
200 / 500 ft
< 800m
< 200 ft
Simboli :   Temporali  Nebbia  Neve Forte  Precipitazioni Forti  Vento > 20 kt
SIGMETs :   Varie  Temporali  Ghiacco  Turbolenza  Onda orograficha  Ceneri Vulcaniche






- Altitudine del aeroporto : 84 ft


LFBC - Cazaux

ULTIMO METAR :
  • 190800Z AUTO 26006KT 220V280 9999 BKN016 OVC023 19/17 Q1013 NOSIG

METARs OBSOLETI :
  • 190730Z AUTO 25006KT 220V310 9999 BKN011 OVC018 19/17 Q1013 BECMG BKN025
  • 190700Z AUTO 23007KT 9999 SCT008 BKN013 BKN020 19/17 Q1013 BECMG BKN025
  • 190630Z AUTO 17009KT 9999 OVC005 17/17 Q1013 BECMG 28010KT BKN025
  • 190600Z AUTO 16008KT 9999 BKN009 OVC013 17/17 Q1012 NOSIG
  • 190530Z AUTO 17007KT 9999 BKN013 OVC084 17/17 Q1012 TEMPO BKN007
  • 190500Z AUTO 17008KT 9999 OVC012 17/16 Q1012 TEMPO BKN007
  • 190430Z AUTO 14006KT 9999 BKN007 BKN013 OVC060 16/16 Q1011 NOSIG
  • 190400Z AUTO 16005KT 9999 BKN008 OVC092 16/16 Q1011
  • 190330Z AUTO 15003KT 9999 BKN007/// BKN074/// OVC098/// ///CB 17/16 Q1011

TAF AMD TAF LFBC
Valido dal 19 a 04 ore il 20 a 03 ore UTC


190417Z 1904/2003 20005KT CAVOK
TEMPO 1904/1908 BKN007
BECMG 1908/1910 28010KT BKN025



MetMap, La meteo Aeronautica in un colpo d'occhio ! - Copyright ORBIFLY Dicembre 2007 - Disclaimer

ORBIFLY MET'MAP TEAM :

Programmazione e sviluppo : Alexandra Zaïnal
Concezione : Baudouin d'Aumeries
Supporto tecnico e logistico : Manuel Goepfert
Aiuto : Marc-Olivier Méhu
Aiuto per la traduzione : Arnaldo La Scala




FONTI E CREDITI :

   NOAA